sensor_id;sensor_type;location;lat;lon;timestamp;P1;durP1;ratioP1;P2;durP2;ratioP2
14892;SDS011;7538;53.626;9.906;2022-09-25T00:01:16;109.88;;;40.60;;
14892;SDS011;7538;53.626;9.906;2022-09-25T00:03:52;94.50;;;35.45;;
14892;SDS011;7538;53.626;9.906;2022-09-25T00:06:20;90.80;;;37.25;;
14892;SDS011;7538;53.626;9.906;2022-09-25T00:08:49;91.63;;;35.08;;
14892;SDS011;7538;53.626;9.906;2022-09-25T00:11:18;87.93;;;36.85;;
14892;SDS011;7538;53.626;9.906;2022-09-25T00:13:47;83.28;;;34.33;;
14892;SDS011;7538;53.626;9.906;2022-09-25T00:16:15;96.78;;;38.20;;
14892;SDS011;7538;53.626;9.906;2022-09-25T00:18:43;114.10;;;41.97;;
14892;SDS011;7538;53.626;9.906;2022-09-25T00:21:28;113.70;;;40.35;;
14892;SDS011;7538;53.626;9.906;2022-09-25T00:23:56;73.18;;;33.17;;
14892;SDS011;7538;53.626;9.906;2022-09-25T00:26:33;77.10;;;33.47;;
14892;SDS011;7538;53.626;9.906;2022-09-25T00:29:01;77.03;;;33.15;;
14892;SDS011;7538;53.626;9.906;2022-09-25T00:31:29;91.25;;;35.20;;
14892;SDS011;7538;53.626;9.906;2022-09-25T00:33:57;74.70;;;33.53;;
14892;SDS011;7538;53.626;9.906;2022-09-25T00:36:25;77.80;;;33.05;;
14892;SDS011;7538;53.626;9.906;2022-09-25T00:38:54;79.90;;;34.10;;
14892;SDS011;7538;53.626;9.906;2022-09-25T00:41:22;77.88;;;33.53;;
14892;SDS011;7538;53.626;9.906;2022-09-25T00:43:52;76.47;;;35.33;;
14892;SDS011;7538;53.626;9.906;2022-09-25T00:46:21;87.53;;;34.28;;
14892;SDS011;7538;53.626;9.906;2022-09-25T00:48:52;79.35;;;31.83;;
14892;SDS011;7538;53.626;9.906;2022-09-25T00:51:32;79.68;;;34.28;;
14892;SDS011;7538;53.626;9.906;2022-09-25T00:54:05;70.18;;;31.73;;
14892;SDS011;7538;53.626;9.906;2022-09-25T00:56:36;78.05;;;32.50;;
14892;SDS011;7538;53.626;9.906;2022-09-25T00:59:08;83.93;;;34.00;;
14892;SDS011;7538;53.626;9.906;2022-09-25T01:01:39;72.13;;;31.38;;
14892;SDS011;7538;53.626;9.906;2022-09-25T01:04:06;71.63;;;30.80;;
14892;SDS011;7538;53.626;9.906;2022-09-25T01:06:37;87.90;;;32.90;;
14892;SDS011;7538;53.626;9.906;2022-09-25T01:09:04;79.60;;;31.02;;
14892;SDS011;7538;53.626;9.906;2022-09-25T01:11:32;91.85;;;38.58;;
14892;SDS011;7538;53.626;9.906;2022-09-25T01:13:59;71.22;;;32.03;;
14892;SDS011;7538;53.626;9.906;2022-09-25T01:16:33;87.15;;;34.55;;
14892;SDS011;7538;53.626;9.906;2022-09-25T01:19:09;80.40;;;31.77;;
14892;SDS011;7538;53.626;9.906;2022-09-25T01:21:45;84.75;;;34.50;;
14892;SDS011;7538;53.626;9.906;2022-09-25T01:24:36;96.05;;;36.03;;
14892;SDS011;7538;53.626;9.906;2022-09-25T01:27:24;88.03;;;32.17;;
14892;SDS011;7538;53.626;9.906;2022-09-25T01:30:02;91.03;;;34.00;;
14892;SDS011;7538;53.626;9.906;2022-09-25T01:32:33;90.63;;;33.97;;
14892;SDS011;7538;53.626;9.906;2022-09-25T01:35:07;130.55;;;40.70;;
14892;SDS011;7538;53.626;9.906;2022-09-25T01:37:40;125.43;;;40.13;;
14892;SDS011;7538;53.626;9.906;2022-09-25T01:40:12;105.15;;;36.17;;
14892;SDS011;7538;53.626;9.906;2022-09-25T01:42:47;119.72;;;39.08;;
14892;SDS011;7538;53.626;9.906;2022-09-25T01:45:20;111.40;;;37.22;;
14892;SDS011;7538;53.626;9.906;2022-09-25T01:47:52;88.78;;;34.03;;
14892;SDS011;7538;53.626;9.906;2022-09-25T01:50:23;100.10;;;37.10;;
14892;SDS011;7538;53.626;9.906;2022-09-25T01:52:54;117.78;;;37.15;;
14892;SDS011;7538;53.626;9.906;2022-09-25T01:55:28;83.93;;;32.75;;
14892;SDS011;7538;53.626;9.906;2022-09-25T01:58:01;103.20;;;36.92;;
14892;SDS011;7538;53.626;9.906;2022-09-25T02:00:35;98.57;;;35.75;;
14892;SDS011;7538;53.626;9.906;2022-09-25T02:03:07;96.53;;;35.60;;
14892;SDS011;7538;53.626;9.906;2022-09-25T02:05:38;94.85;;;35.55;;
14892;SDS011;7538;53.626;9.906;2022-09-25T02:08:10;85.65;;;32.72;;
14892;SDS011;7538;53.626;9.906;2022-09-25T02:10:41;114.65;;;38.17;;
14892;SDS011;7538;53.626;9.906;2022-09-25T02:13:12;108.72;;;38.17;;
14892;SDS011;7538;53.626;9.906;2022-09-25T02:15:43;89.05;;;35.13;;
14892;SDS011;7538;53.626;9.906;2022-09-25T02:18:15;114.72;;;39.70;;
14892;SDS011;7538;53.626;9.906;2022-09-25T02:21:10;107.15;;;37.15;;
14892;SDS011;7538;53.626;9.906;2022-09-25T02:23:43;108.18;;;38.10;;
14892;SDS011;7538;53.626;9.906;2022-09-25T02:26:15;113.85;;;39.40;;
14892;SDS011;7538;53.626;9.906;2022-09-25T02:28:47;113.57;;;42.67;;
14892;SDS011;7538;53.626;9.906;2022-09-25T02:31:19;114.50;;;39.97;;
14892;SDS011;7538;53.626;9.906;2022-09-25T02:33:48;105.28;;;39.97;;
14892;SDS011;7538;53.626;9.906;2022-09-25T02:36:17;96.57;;;36.53;;
14892;SDS011;7538;53.626;9.906;2022-09-25T02:38:46;97.43;;;39.78;;
14892;SDS011;7538;53.626;9.906;2022-09-25T02:41:16;103.90;;;39.88;;
14892;SDS011;7538;53.626;9.906;2022-09-25T02:43:54;98.35;;;37.13;;
14892;SDS011;7538;53.626;9.906;2022-09-25T02:46:31;125.97;;;44.30;;
14892;SDS011;7538;53.626;9.906;2022-09-25T02:49:07;105.38;;;38.95;;
14892;SDS011;7538;53.626;9.906;2022-09-25T02:51:44;99.57;;;38.95;;
14892;SDS011;7538;53.626;9.906;2022-09-25T02:54:19;97.00;;;36.50;;
14892;SDS011;7538;53.626;9.906;2022-09-25T02:56:50;91.93;;;37.35;;
14892;SDS011;7538;53.626;9.906;2022-09-25T02:59:21;115.07;;;42.03;;
14892;SDS011;7538;53.626;9.906;2022-09-25T03:01:56;103.07;;;39.40;;
14892;SDS011;7538;53.626;9.906;2022-09-25T03:04:24;132.20;;;45.70;;
14892;SDS011;7538;53.626;9.906;2022-09-25T03:06:53;127.47;;;42.97;;
14892;SDS011;7538;53.626;9.906;2022-09-25T03:09:21;101.45;;;37.70;;
14892;SDS011;7538;53.626;9.906;2022-09-25T03:11:49;120.00;;;43.80;;
14892;SDS011;7538;53.626;9.906;2022-09-25T03:14:16;113.05;;;41.28;;
14892;SDS011;7538;53.626;9.906;2022-09-25T03:16:45;116.60;;;41.58;;
14892;SDS011;7538;53.626;9.906;2022-09-25T03:19:15;97.50;;;39.72;;
14892;SDS011;7538;53.626;9.906;2022-09-25T03:21:44;103.38;;;39.13;;
14892;SDS011;7538;53.626;9.906;2022-09-25T03:24:12;121.93;;;43.08;;
14892;SDS011;7538;53.626;9.906;2022-09-25T03:26:38;103.30;;;41.78;;
14892;SDS011;7538;53.626;9.906;2022-09-25T03:29:05;132.60;;;46.00;;
14892;SDS011;7538;53.626;9.906;2022-09-25T03:31:33;114.88;;;41.30;;
14892;SDS011;7538;53.626;9.906;2022-09-25T03:34:00;112.30;;;42.15;;
14892;SDS011;7538;53.626;9.906;2022-09-25T03:36:29;102.65;;;39.78;;
14892;SDS011;7538;53.626;9.906;2022-09-25T03:38:58;95.80;;;37.67;;
14892;SDS011;7538;53.626;9.906;2022-09-25T03:41:36;142.23;;;46.50;;
14892;SDS011;7538;53.626;9.906;2022-09-25T03:44:03;84.53;;;37.13;;
14892;SDS011;7538;53.626;9.906;2022-09-25T03:46:31;109.32;;;39.70;;
14892;SDS011;7538;53.626;9.906;2022-09-25T03:48:59;90.15;;;37.17;;
14892;SDS011;7538;53.626;9.906;2022-09-25T03:51:29;104.32;;;40.50;;
14892;SDS011;7538;53.626;9.906;2022-09-25T03:53:57;107.45;;;39.22;;
14892;SDS011;7538;53.626;9.906;2022-09-25T03:56:25;102.32;;;38.63;;
14892;SDS011;7538;53.626;9.906;2022-09-25T03:59:04;103.35;;;37.67;;
14892;SDS011;7538;53.626;9.906;2022-09-25T04:01:31;120.25;;;42.08;;
14892;SDS011;7538;53.626;9.906;2022-09-25T04:03:58;104.53;;;39.03;;
14892;SDS011;7538;53.626;9.906;2022-09-25T04:06:28;94.97;;;36.80;;
14892;SDS011;7538;53.626;9.906;2022-09-25T04:08:55;263.75;;;56.80;;
14892;SDS011;7538;53.626;9.906;2022-09-25T04:11:22;91.85;;;34.47;;
14892;SDS011;7538;53.626;9.906;2022-09-25T04:13:49;84.20;;;34.92;;
14892;SDS011;7538;53.626;9.906;2022-09-25T04:16:17;174.75;;;46.70;;
14892;SDS011;7538;53.626;9.906;2022-09-25T04:18:51;94.40;;;34.90;;
14892;SDS011;7538;53.626;9.906;2022-09-25T04:21:18;119.03;;;40.45;;
14892;SDS011;7538;53.626;9.906;2022-09-25T04:23:46;118.82;;;39.88;;
14892;SDS011;7538;53.626;9.906;2022-09-25T04:26:27;202.13;;;50.78;;
14892;SDS011;7538;53.626;9.906;2022-09-25T04:28:54;82.82;;;32.28;;
14892;SDS011;7538;53.626;9.906;2022-09-25T04:31:21;107.20;;;36.35;;
14892;SDS011;7538;53.626;9.906;2022-09-25T04:33:48;80.70;;;33.90;;
14892;SDS011;7538;53.626;9.906;2022-09-25T04:36:14;213.80;;;52.75;;
14892;SDS011;7538;53.626;9.906;2022-09-25T04:38:44;112.47;;;38.83;;
14892;SDS011;7538;53.626;9.906;2022-09-25T04:41:13;195.20;;;50.55;;
14892;SDS011;7538;53.626;9.906;2022-09-25T04:43:41;119.57;;;37.53;;
14892;SDS011;7538;53.626;9.906;2022-09-25T04:46:08;82.03;;;34.70;;
14892;SDS011;7538;53.626;9.906;2022-09-25T04:48:37;77.57;;;34.50;;
14892;SDS011;7538;53.626;9.906;2022-09-25T04:51:04;85.88;;;32.72;;
14892;SDS011;7538;53.626;9.906;2022-09-25T04:53:32;83.18;;;32.80;;
14892;SDS011;7538;53.626;9.906;2022-09-25T04:56:00;102.80;;;38.85;;
14892;SDS011;7538;53.626;9.906;2022-09-25T04:58:29;80.00;;;32.42;;
14892;SDS011;7538;53.626;9.906;2022-09-25T05:01:00;78.93;;;32.97;;
14892;SDS011;7538;53.626;9.906;2022-09-25T05:03:29;84.57;;;34.42;;
14892;SDS011;7538;53.626;9.906;2022-09-25T05:05:55;83.65;;;32.95;;
14892;SDS011;7538;53.626;9.906;2022-09-25T05:08:24;115.57;;;38.45;;
14892;SDS011;7538;53.626;9.906;2022-09-25T05:10:51;70.25;;;30.15;;
14892;SDS011;7538;53.626;9.906;2022-09-25T05:13:18;145.48;;;45.08;;
14892;SDS011;7538;53.626;9.906;2022-09-25T05:15:47;111.45;;;39.00;;
14892;SDS011;7538;53.626;9.906;2022-09-25T05:18:15;87.78;;;34.80;;
14892;SDS011;7538;53.626;9.906;2022-09-25T05:20:43;127.95;;;41.00;;
14892;SDS011;7538;53.626;9.906;2022-09-25T05:23:10;88.10;;;34.00;;
14892;SDS011;7538;53.626;9.906;2022-09-25T05:25:37;86.05;;;32.92;;
14892;SDS011;7538;53.626;9.906;2022-09-25T05:28:05;91.55;;;35.55;;
14892;SDS011;7538;53.626;9.906;2022-09-25T05:30:32;74.60;;;33.25;;
14892;SDS011;7538;53.626;9.906;2022-09-25T05:33:04;84.15;;;34.28;;
14892;SDS011;7538;53.626;9.906;2022-09-25T05:35:31;89.43;;;36.42;;
14892;SDS011;7538;53.626;9.906;2022-09-25T05:38:02;92.28;;;35.05;;
14892;SDS011;7538;53.626;9.906;2022-09-25T05:40:36;93.53;;;34.95;;
14892;SDS011;7538;53.626;9.906;2022-09-25T05:43:06;125.32;;;41.35;;
14892;SDS011;7538;53.626;9.906;2022-09-25T05:45:37;94.55;;;36.55;;
14892;SDS011;7538;53.626;9.906;2022-09-25T05:48:15;75.90;;;34.03;;
14892;SDS011;7538;53.626;9.906;2022-09-25T05:50:43;121.18;;;42.05;;
14892;SDS011;7538;53.626;9.906;2022-09-25T05:53:10;88.80;;;34.60;;
14892;SDS011;7538;53.626;9.906;2022-09-25T05:55:37;86.50;;;36.35;;
14892;SDS011;7538;53.626;9.906;2022-09-25T05:58:04;94.45;;;35.00;;
14892;SDS011;7538;53.626;9.906;2022-09-25T06:00:39;88.60;;;35.05;;
14892;SDS011;7538;53.626;9.906;2022-09-25T06:03:08;106.38;;;39.13;;
14892;SDS011;7538;53.626;9.906;2022-09-25T06:05:37;91.57;;;38.95;;
14892;SDS011;7538;53.626;9.906;2022-09-25T06:08:05;104.88;;;39.83;;
14892;SDS011;7538;53.626;9.906;2022-09-25T06:10:33;147.63;;;48.70;;
14892;SDS011;7538;53.626;9.906;2022-09-25T06:13:01;81.90;;;35.20;;
14892;SDS011;7538;53.626;9.906;2022-09-25T06:15:32;93.38;;;38.33;;
14892;SDS011;7538;53.626;9.906;2022-09-25T06:18:01;105.22;;;39.38;;
14892;SDS011;7538;53.626;9.906;2022-09-25T06:20:28;152.88;;;43.75;;
14892;SDS011;7538;53.626;9.906;2022-09-25T06:22:58;57.28;;;24.85;;
14892;SDS011;7538;53.626;9.906;2022-09-25T06:25:25;56.42;;;21.83;;
14892;SDS011;7538;53.626;9.906;2022-09-25T06:27:54;47.88;;;19.10;;
14892;SDS011;7538;53.626;9.906;2022-09-25T06:30:24;23.33;;;11.93;;
14892;SDS011;7538;53.626;9.906;2022-09-25T06:32:58;14.82;;;9.10;;
14892;SDS011;7538;53.626;9.906;2022-09-25T06:35:25;12.50;;;7.68;;
14892;SDS011;7538;53.626;9.906;2022-09-25T06:37:55;11.95;;;7.45;;
14892;SDS011;7538;53.626;9.906;2022-09-25T06:40:25;12.82;;;8.32;;
14892;SDS011;7538;53.626;9.906;2022-09-25T06:42:57;10.10;;;7.53;;
14892;SDS011;7538;53.626;9.906;2022-09-25T06:45:25;12.57;;;8.27;;
14892;SDS011;7538;53.626;9.906;2022-09-25T06:47:53;13.57;;;9.25;;
14892;SDS011;7538;53.626;9.906;2022-09-25T06:50:22;10.50;;;8.35;;
14892;SDS011;7538;53.626;9.906;2022-09-25T06:52:55;12.48;;;9.38;;
14892;SDS011;7538;53.626;9.906;2022-09-25T06:55:22;12.60;;;9.70;;
14892;SDS011;7538;53.626;9.906;2022-09-25T06:57:51;11.65;;;9.88;;
14892;SDS011;7538;53.626;9.906;2022-09-25T07:00:18;14.82;;;11.00;;
14892;SDS011;7538;53.626;9.906;2022-09-25T07:02:46;14.93;;;11.30;;
14892;SDS011;7538;53.626;9.906;2022-09-25T07:05:45;18.33;;;12.63;;
14892;SDS011;7538;53.626;9.906;2022-09-25T07:08:13;14.40;;;11.15;;
14892;SDS011;7538;53.626;9.906;2022-09-25T07:10:45;16.50;;;12.55;;
14892;SDS011;7538;53.626;9.906;2022-09-25T07:13:14;23.08;;;14.45;;
14892;SDS011;7538;53.626;9.906;2022-09-25T07:15:42;20.25;;;13.27;;
14892;SDS011;7538;53.626;9.906;2022-09-25T07:18:16;20.75;;;14.52;;
14892;SDS011;7538;53.626;9.906;2022-09-25T07:20:43;24.05;;;15.05;;
14892;SDS011;7538;53.626;9.906;2022-09-25T07:23:14;19.55;;;12.75;;
14892;SDS011;7538;53.626;9.906;2022-09-25T07:25:42;22.65;;;14.88;;
14892;SDS011;7538;53.626;9.906;2022-09-25T07:28:09;19.38;;;13.00;;
14892;SDS011;7538;53.626;9.906;2022-09-25T07:30:41;21.30;;;13.93;;
14892;SDS011;7538;53.626;9.906;2022-09-25T07:33:09;22.33;;;14.75;;
14892;SDS011;7538;53.626;9.906;2022-09-25T07:35:36;19.50;;;14.15;;
14892;SDS011;7538;53.626;9.906;2022-09-25T07:38:03;22.85;;;15.15;;
14892;SDS011;7538;53.626;9.906;2022-09-25T07:40:31;20.08;;;14.55;;
14892;SDS011;7538;53.626;9.906;2022-09-25T07:42:59;32.25;;;17.65;;
14892;SDS011;7538;53.626;9.906;2022-09-25T07:45:27;22.13;;;14.65;;
14892;SDS011;7538;53.626;9.906;2022-09-25T07:47:56;21.98;;;14.93;;
14892;SDS011;7538;53.626;9.906;2022-09-25T07:50:24;18.42;;;13.70;;
14892;SDS011;7538;53.626;9.906;2022-09-25T07:52:52;24.90;;;14.13;;
14892;SDS011;7538;53.626;9.906;2022-09-25T07:55:19;16.67;;;12.80;;
14892;SDS011;7538;53.626;9.906;2022-09-25T07:57:46;29.10;;;15.93;;
14892;SDS011;7538;53.626;9.906;2022-09-25T08:00:14;24.08;;;14.50;;
14892;SDS011;7538;53.626;9.906;2022-09-25T08:02:42;23.75;;;14.10;;
14892;SDS011;7538;53.626;9.906;2022-09-25T08:05:11;15.82;;;11.88;;
14892;SDS011;7538;53.626;9.906;2022-09-25T08:07:39;25.48;;;14.27;;
14892;SDS011;7538;53.626;9.906;2022-09-25T08:10:06;18.35;;;12.00;;
14892;SDS011;7538;53.626;9.906;2022-09-25T08:12:34;21.40;;;13.32;;
14892;SDS011;7538;53.626;9.906;2022-09-25T08:15:02;18.10;;;12.43;;
14892;SDS011;7538;53.626;9.906;2022-09-25T08:17:30;17.15;;;13.00;;
14892;SDS011;7538;53.626;9.906;2022-09-25T08:19:57;15.95;;;11.30;;
14892;SDS011;7538;53.626;9.906;2022-09-25T08:22:26;18.67;;;13.38;;
14892;SDS011;7538;53.626;9.906;2022-09-25T08:24:54;15.32;;;12.20;;
14892;SDS011;7538;53.626;9.906;2022-09-25T08:27:21;19.83;;;14.40;;
14892;SDS011;7538;53.626;9.906;2022-09-25T08:29:49;18.98;;;13.30;;
14892;SDS011;7538;53.626;9.906;2022-09-25T08:32:16;16.60;;;13.80;;
14892;SDS011;7538;53.626;9.906;2022-09-25T08:34:43;19.95;;;13.93;;
14892;SDS011;7538;53.626;9.906;2022-09-25T08:37:14;19.30;;;14.57;;
14892;SDS011;7538;53.626;9.906;2022-09-25T08:39:45;19.08;;;14.60;;
14892;SDS011;7538;53.626;9.906;2022-09-25T08:42:13;28.23;;;16.75;;
14892;SDS011;7538;53.626;9.906;2022-09-25T08:44:44;20.15;;;14.98;;
14892;SDS011;7538;53.626;9.906;2022-09-25T08:47:34;18.55;;;13.63;;
14892;SDS011;7538;53.626;9.906;2022-09-25T08:50:22;20.60;;;14.55;;
14892;SDS011;7538;53.626;9.906;2022-09-25T08:52:50;15.98;;;13.15;;
14892;SDS011;7538;53.626;9.906;2022-09-25T08:55:23;22.25;;;14.48;;
14892;SDS011;7538;53.626;9.906;2022-09-25T08:58:15;19.45;;;14.57;;
14892;SDS011;7538;53.626;9.906;2022-09-25T09:00:48;20.45;;;15.23;;
14892;SDS011;7538;53.626;9.906;2022-09-25T09:03:15;23.83;;;15.98;;
14892;SDS011;7538;53.626;9.906;2022-09-25T09:05:42;19.30;;;15.25;;
14892;SDS011;7538;53.626;9.906;2022-09-25T09:08:11;16.73;;;14.23;;
14892;SDS011;7538;53.626;9.906;2022-09-25T09:10:44;20.02;;;15.45;;
14892;SDS011;7538;53.626;9.906;2022-09-25T09:13:15;19.67;;;15.60;;
14892;SDS011;7538;53.626;9.906;2022-09-25T09:15:50;20.38;;;15.75;;
14892;SDS011;7538;53.626;9.906;2022-09-25T09:18:22;23.15;;;15.30;;
14892;SDS011;7538;53.626;9.906;2022-09-25T09:20:52;21.15;;;16.65;;
14892;SDS011;7538;53.626;9.906;2022-09-25T09:23:20;20.33;;;15.95;;
14892;SDS011;7538;53.626;9.906;2022-09-25T09:25:57;25.40;;;17.05;;
14892;SDS011;7538;53.626;9.906;2022-09-25T09:31:23;19.15;;;14.65;;
14892;SDS011;7538;53.626;9.906;2022-09-25T09:34:05;19.60;;;13.80;;
14892;SDS011;7538;53.626;9.906;2022-09-25T09:36:51;20.70;;;14.73;;
14892;SDS011;7538;53.626;9.906;2022-09-25T09:39:24;23.55;;;16.52;;
14892;SDS011;7538;53.626;9.906;2022-09-25T09:42:03;24.38;;;17.00;;
14892;SDS011;7538;53.626;9.906;2022-09-25T09:44:44;19.08;;;14.40;;
14892;SDS011;7538;53.626;9.906;2022-09-25T09:47:32;18.15;;;13.88;;
14892;SDS011;7538;53.626;9.906;2022-09-25T09:50:15;42.67;;;21.23;;
14892;SDS011;7538;53.626;9.906;2022-09-25T09:52:49;22.58;;;16.65;;
14892;SDS011;7538;53.626;9.906;2022-09-25T09:55:24;24.30;;;16.15;;
14892;SDS011;7538;53.626;9.906;2022-09-25T09:58:07;23.85;;;16.75;;
14892;SDS011;7538;53.626;9.906;2022-09-25T10:00:39;23.52;;;16.77;;
14892;SDS011;7538;53.626;9.906;2022-09-25T10:03:10;25.90;;;16.55;;
14892;SDS011;7538;53.626;9.906;2022-09-25T10:05:52;18.88;;;15.15;;
14892;SDS011;7538;53.626;9.906;2022-09-25T10:08:22;22.08;;;16.30;;
14892;SDS011;7538;53.626;9.906;2022-09-25T10:10:50;23.20;;;17.50;;
14892;SDS011;7538;53.626;9.906;2022-09-25T10:13:21;20.65;;;16.65;;
14892;SDS011;7538;53.626;9.906;2022-09-25T10:15:51;23.10;;;16.35;;
14892;SDS011;7538;53.626;9.906;2022-09-25T10:18:25;19.98;;;14.93;;
14892;SDS011;7538;53.626;9.906;2022-09-25T10:20:57;18.35;;;15.13;;
14892;SDS011;7538;53.626;9.906;2022-09-25T10:23:34;18.83;;;14.30;;
14892;SDS011;7538;53.626;9.906;2022-09-25T10:26:23;18.55;;;14.05;;
14892;SDS011;7538;53.626;9.906;2022-09-25T10:28:53;17.70;;;14.38;;
14892;SDS011;7538;53.626;9.906;2022-09-25T10:31:23;19.13;;;12.60;;
14892;SDS011;7538;53.626;9.906;2022-09-25T10:33:59;13.77;;;11.98;;
14892;SDS011;7538;53.626;9.906;2022-09-25T10:36:37;13.88;;;12.30;;
14892;SDS011;7538;53.626;9.906;2022-09-25T10:41:52;17.30;;;11.90;;
14892;SDS011;7538;53.626;9.906;2022-09-25T10:44:22;13.45;;;11.82;;
14892;SDS011;7538;53.626;9.906;2022-09-25T10:50:17;12.93;;;11.45;;
14892;SDS011;7538;53.626;9.906;2022-09-25T10:55:23;17.38;;;13.48;;
14892;SDS011;7538;53.626;9.906;2022-09-25T11:00:38;14.15;;;12.10;;
14892;SDS011;7538;53.626;9.906;2022-09-25T11:03:14;14.95;;;12.25;;
14892;SDS011;7538;53.626;9.906;2022-09-25T11:05:51;17.30;;;13.30;;
14892;SDS011;7538;53.626;9.906;2022-09-25T11:08:21;13.45;;;12.05;;
14892;SDS011;7538;53.626;9.906;2022-09-25T11:10:53;14.80;;;11.07;;
14892;SDS011;7538;53.626;9.906;2022-09-25T11:13:22;17.10;;;12.60;;
14892;SDS011;7538;53.626;9.906;2022-09-25T11:15:55;13.45;;;11.60;;
14892;SDS011;7538;53.626;9.906;2022-09-25T11:18:35;12.63;;;10.90;;
14892;SDS011;7538;53.626;9.906;2022-09-25T11:21:05;13.75;;;10.75;;
14892;SDS011;7538;53.626;9.906;2022-09-25T11:26:32;13.65;;;10.30;;
14892;SDS011;7538;53.626;9.906;2022-09-25T11:29:16;17.40;;;10.05;;
14892;SDS011;7538;53.626;9.906;2022-09-25T11:31:48;13.85;;;10.07;;
14892;SDS011;7538;53.626;9.906;2022-09-25T11:34:26;11.35;;;9.75;;
14892;SDS011;7538;53.626;9.906;2022-09-25T11:37:09;11.88;;;9.85;;
14892;SDS011;7538;53.626;9.906;2022-09-25T11:39:45;11.10;;;8.18;;
14892;SDS011;7538;53.626;9.906;2022-09-25T11:42:34;10.30;;;8.43;;
14892;SDS011;7538;53.626;9.906;2022-09-25T11:45:06;12.02;;;8.32;;
14892;SDS011;7538;53.626;9.906;2022-09-25T11:47:46;8.68;;;7.20;;
14892;SDS011;7538;53.626;9.906;2022-09-25T11:50:18;11.07;;;8.02;;
14892;SDS011;7538;53.626;9.906;2022-09-25T11:53:00;14.15;;;8.73;;
14892;SDS011;7538;53.626;9.906;2022-09-25T11:55:41;9.82;;;8.25;;
14892;SDS011;7538;53.626;9.906;2022-09-25T11:58:30;8.80;;;7.50;;
14892;SDS011;7538;53.626;9.906;2022-09-25T12:01:15;10.70;;;8.27;;
14892;SDS011;7538;53.626;9.906;2022-09-25T12:03:54;12.48;;;8.63;;
14892;SDS011;7538;53.626;9.906;2022-09-25T12:06:40;14.27;;;10.50;;
14892;SDS011;7538;53.626;9.906;2022-09-25T12:09:41;12.93;;;9.60;;
14892;SDS011;7538;53.626;9.906;2022-09-25T12:12:29;10.45;;;8.93;;
14892;SDS011;7538;53.626;9.906;2022-09-25T12:15:12;9.00;;;7.50;;
14892;SDS011;7538;53.626;9.906;2022-09-25T12:17:47;8.40;;;7.50;;
14892;SDS011;7538;53.626;9.906;2022-09-25T12:20:25;9.25;;;7.65;;
14892;SDS011;7538;53.626;9.906;2022-09-25T12:23:02;11.35;;;7.40;;
14892;SDS011;7538;53.626;9.906;2022-09-25T12:25:53;9.13;;;7.97;;
14892;SDS011;7538;53.626;9.906;2022-09-25T12:28:30;9.88;;;7.15;;
14892;SDS011;7538;53.626;9.906;2022-09-25T12:31:15;7.93;;;7.10;;
14892;SDS011;7538;53.626;9.906;2022-09-25T12:33:56;9.32;;;6.88;;
14892;SDS011;7538;53.626;9.906;2022-09-25T12:36:39;8.27;;;7.18;;
14892;SDS011;7538;53.626;9.906;2022-09-25T12:39:22;6.53;;;5.65;;
14892;SDS011;7538;53.626;9.906;2022-09-25T12:41:58;8.52;;;5.55;;
14892;SDS011;7538;53.626;9.906;2022-09-25T12:44:35;7.38;;;5.90;;
14892;SDS011;7538;53.626;9.906;2022-09-25T12:47:09;6.05;;;5.45;;
14892;SDS011;7538;53.626;9.906;2022-09-25T12:49:44;6.45;;;5.47;;
14892;SDS011;7538;53.626;9.906;2022-09-25T12:52:17;6.72;;;5.03;;
14892;SDS011;7538;53.626;9.906;2022-09-25T12:54:49;7.40;;;4.90;;
14892;SDS011;7538;53.626;9.906;2022-09-25T12:57:21;6.15;;;4.93;;
14892;SDS011;7538;53.626;9.906;2022-09-25T12:59:53;3.95;;;3.50;;
14892;SDS011;7538;53.626;9.906;2022-09-25T13:02:33;6.38;;;4.25;;
14892;SDS011;7538;53.626;9.906;2022-09-25T13:05:07;5.78;;;5.25;;
14892;SDS011;7538;53.626;9.906;2022-09-25T13:07:40;7.07;;;4.40;;
14892;SDS011;7538;53.626;9.906;2022-09-25T13:10:21;5.55;;;3.55;;
14892;SDS011;7538;53.626;9.906;2022-09-25T13:12:57;5.78;;;4.00;;
14892;SDS011;7538;53.626;9.906;2022-09-25T13:18:00;5.22;;;3.30;;
14892;SDS011;7538;53.626;9.906;2022-09-25T13:23:26;5.88;;;3.15;;
14892;SDS011;7538;53.626;9.906;2022-09-25T13:25:57;4.85;;;3.67;;
14892;SDS011;7538;53.626;9.906;2022-09-25T13:31:07;7.13;;;3.90;;
14892;SDS011;7538;53.626;9.906;2022-09-25T13:33:46;6.22;;;3.58;;
14892;SDS011;7538;53.626;9.906;2022-09-25T13:36:18;5.30;;;3.50;;
14892;SDS011;7538;53.626;9.906;2022-09-25T13:38:58;3.67;;;3.28;;
14892;SDS011;7538;53.626;9.906;2022-09-25T13:50:29;8.73;;;3.30;;
14892;SDS011;7538;53.626;9.906;2022-09-25T13:53:02;6.93;;;3.22;;
14892;SDS011;7538;53.626;9.906;2022-09-25T14:05:16;5.47;;;3.00;;
14892;SDS011;7538;53.626;9.906;2022-09-25T14:07:45;5.25;;;2.92;;
14892;SDS011;7538;53.626;9.906;2022-09-25T14:10:18;7.93;;;3.38;;
14892;SDS011;7538;53.626;9.906;2022-09-25T14:12:49;4.55;;;3.10;;
14892;SDS011;7538;53.626;9.906;2022-09-25T14:15:29;4.18;;;3.00;;
14892;SDS011;7538;53.626;9.906;2022-09-25T14:17:59;4.93;;;2.83;;
14892;SDS011;7538;53.626;9.906;2022-09-25T14:20:31;5.32;;;2.97;;
14892;SDS011;7538;53.626;9.906;2022-09-25T14:23:09;5.15;;;2.97;;
14892;SDS011;7538;53.626;9.906;2022-09-25T14:25:42;4.45;;;3.25;;
14892;SDS011;7538;53.626;9.906;2022-09-25T14:28:24;5.25;;;2.95;;
14892;SDS011;7538;53.626;9.906;2022-09-25T14:31:02;4.93;;;2.60;;
14892;SDS011;7538;53.626;9.906;2022-09-25T14:33:48;9.15;;;3.60;;
14892;SDS011;7538;53.626;9.906;2022-09-25T14:36:34;5.43;;;3.20;;
14892;SDS011;7538;53.626;9.906;2022-09-25T14:39:19;8.10;;;3.60;;
14892;SDS011;7538;53.626;9.906;2022-09-25T14:45:06;6.15;;;3.53;;
14892;SDS011;7538;53.626;9.906;2022-09-25T14:47:48;3.47;;;3.13;;
14892;SDS011;7538;53.626;9.906;2022-09-25T14:50:18;5.35;;;2.95;;
14892;SDS011;7538;53.626;9.906;2022-09-25T14:52:53;4.97;;;3.20;;
14892;SDS011;7538;53.626;9.906;2022-09-25T14:55:24;4.68;;;3.13;;
14892;SDS011;7538;53.626;9.906;2022-09-25T14:57:54;3.53;;;2.60;;
14892;SDS011;7538;53.626;9.906;2022-09-25T15:00:25;5.65;;;3.40;;
14892;SDS011;7538;53.626;9.906;2022-09-25T15:02:53;6.55;;;3.08;;
14892;SDS011;7538;53.626;9.906;2022-09-25T15:05:29;6.07;;;2.80;;
14892;SDS011;7538;53.626;9.906;2022-09-25T15:07:59;4.15;;;2.67;;
14892;SDS011;7538;53.626;9.906;2022-09-25T15:10:28;6.18;;;2.35;;
14892;SDS011;7538;53.626;9.906;2022-09-25T15:13:06;4.43;;;2.08;;
14892;SDS011;7538;53.626;9.906;2022-09-25T15:15:41;7.32;;;3.75;;
14892;SDS011;7538;53.626;9.906;2022-09-25T15:18:31;6.90;;;4.20;;
14892;SDS011;7538;53.626;9.906;2022-09-25T15:21:01;4.72;;;2.50;;
14892;SDS011;7538;53.626;9.906;2022-09-25T15:23:29;4.95;;;2.53;;
14892;SDS011;7538;53.626;9.906;2022-09-25T15:25:56;3.40;;;2.38;;
14892;SDS011;7538;53.626;9.906;2022-09-25T15:28:25;4.20;;;1.70;;
14892;SDS011;7538;53.626;9.906;2022-09-25T15:30:55;4.25;;;1.73;;
14892;SDS011;7538;53.626;9.906;2022-09-25T15:33:28;6.25;;;4.47;;
14892;SDS011;7538;53.626;9.906;2022-09-25T15:35:56;4.57;;;3.13;;
14892;SDS011;7538;53.626;9.906;2022-09-25T15:38:27;5.15;;;2.15;;
14892;SDS011;7538;53.626;9.906;2022-09-25T15:40:57;4.45;;;2.03;;
14892;SDS011;7538;53.626;9.906;2022-09-25T15:43:24;5.32;;;2.28;;
14892;SDS011;7538;53.626;9.906;2022-09-25T15:45:56;4.35;;;2.03;;
14892;SDS011;7538;53.626;9.906;2022-09-25T15:48:49;5.40;;;2.20;;
14892;SDS011;7538;53.626;9.906;2022-09-25T15:51:21;6.15;;;3.75;;
14892;SDS011;7538;53.626;9.906;2022-09-25T15:53:51;6.25;;;2.30;;
14892;SDS011;7538;53.626;9.906;2022-09-25T15:56:21;23.70;;;10.05;;